Time;durP1;ratioP1;P1;durP2;ratioP2;P2;SDS_P1;SDS_P2;PMS_P1;PMS_P2;Temp;Humidity;BMP_temperature;BMP_pressure;BME280_temperature;BME280_humidity;BME280_pressure;Samples;Min_cycle;Max_cycle;Signal;HPM_P1;HPM_P2
2022/12/06 00:00:04;;;;;;;;;;;;;;;10.14;76.15;102382.94;5116537;27;19915;-85
2022/12/06 00:02:38;;;;;;;;;;;;;;;10.17;76.36;102367.53;5118346;27;19911;-86
2022/12/06 00:05:03;;;;;;;;;;;;;;;10.18;76.42;102373.63;5133945;27;19915;-87
2022/12/06 00:07:29;;;;;;;;;;;;;;;10.17;76.16;102364.00;5128501;27;20392;-86
2022/12/06 00:09:55;;;;;;;;;;;;;;;10.18;76.15;102363.19;5107841;27;20002;-86
2022/12/06 00:12:20;;;;;;;;;;;;;;;10.15;76.48;102366.47;5098906;28;19974;-88
2022/12/06 00:14:45;;;;;;;;;;;;;;;10.15;76.19;102361.25;5105865;27;19974;-87
2022/12/06 00:17:11;;;;;;;;;;;;;;;10.16;76.45;102365.72;5091088;27;19915;-87
2022/12/06 00:19:36;;;;;;;;;;;;;;;10.12;76.56;102362.72;5087303;28;20408;-85
2022/12/06 00:22:02;;;;;;;;;;;;;;;10.18;76.47;102363.19;5106291;28;20514;-87
2022/12/06 00:24:27;;;;;;;;;;;;;;;10.21;76.09;102358.25;5114258;28;19916;-87
2022/12/06 00:26:53;;;;;;;;;;;;;;;10.16;76.28;102351.75;5084468;28;20351;-87
2022/12/06 00:29:20;;;;;;;;;;;;;;;10.13;76.17;102357.63;5091658;28;19923;-87
2022/12/06 00:31:45;;;;;;;;;;;;;;;10.14;76.42;102346.41;5113083;28;19961;-85
2022/12/06 00:34:11;;;;;;;;;;;;;;;10.18;76.45;102351.09;5109230;28;19915;-85
2022/12/06 00:36:37;;;;;;;;;;;;;;;10.13;76.70;102344.56;5108057;28;19920;-86
2022/12/06 00:39:10;;;;;;;;;;;;;;;10.16;76.40;102349.16;5094071;28;19915;-82
2022/12/06 00:41:36;;;;;;;;;;;;;;;10.18;76.56;102348.47;5092307;28;19965;-85
2022/12/06 00:44:02;;;;;;;;;;;;;;;10.17;76.68;102343.13;5107197;28;19916;-84
2022/12/06 00:46:29;;;;;;;;;;;;;;;10.16;76.32;102341.31;5090680;28;19912;-86
2022/12/06 00:49:04;;;;;;;;;;;;;;;10.19;76.41;102337.22;5107866;28;19916;-84
2022/12/06 00:51:37;;;;;;;;;;;;;;;10.14;76.52;102328.13;5098579;28;19923;-86
2022/12/06 00:54:15;;;;;;;;;;;;;;;10.15;76.18;102326.41;5099947;28;19920;-87
2022/12/06 00:56:40;;;;;;;;;;;;;;;10.16;76.46;102323.94;5106858;28;20486;-88
2022/12/06 00:59:06;;;;;;;;;;;;;;;10.19;76.33;102318.94;5105404;28;19918;-85
2022/12/06 01:01:40;;;;;;;;;;;;;;;10.17;76.38;102320.53;5104919;28;19915;-85
2022/12/06 01:04:12;;;;;;;;;;;;;;;10.16;76.61;102312.59;5097055;28;19916;-87
2022/12/06 01:06:37;;;;;;;;;;;;;;;10.17;76.66;102311.78;5093586;28;19947;-87
2022/12/06 01:09:04;;;;;;;;;;;;;;;10.19;76.11;102312.81;5089154;28;20028;-88
2022/12/06 01:11:42;;;;;;;;;;;;;;;10.21;76.39;102307.75;5077026;28;20397;-87
2022/12/06 01:14:07;;;;;;;;;;;;;;;10.16;76.38;102308.28;5110664;28;19926;-85
2022/12/06 01:16:33;;;;;;;;;;;;;;;10.17;76.26;102303.97;5111349;28;19916;-88
2022/12/06 01:19:00;;;;;;;;;;;;;;;10.21;76.42;102305.13;5106529;28;20605;-87
2022/12/06 01:21:26;;;;;;;;;;;;;;;10.20;76.26;102301.59;5092803;28;20020;-86
2022/12/06 01:23:55;;;;;;;;;;;;;;;10.19;76.11;102294.56;5109518;28;19916;-87
2022/12/06 01:26:24;;;;;;;;;;;;;;;10.15;76.53;102306.44;5112523;28;19935;-87
2022/12/06 01:28:49;;;;;;;;;;;;;;;10.20;76.54;102298.97;5111226;28;19926;-87
2022/12/06 01:31:15;;;;;;;;;;;;;;;10.19;76.54;102297.16;5111487;28;19916;-87
2022/12/06 01:33:41;;;;;;;;;;;;;;;10.17;76.70;102290.91;5111732;28;19938;-87
2022/12/06 01:36:06;;;;;;;;;;;;;;;10.17;76.58;102294.41;5080587;28;19966;-87
2022/12/06 01:38:32;;;;;;;;;;;;;;;10.17;76.30;102290.91;5105087;28;19918;-86
2022/12/06 01:40:57;;;;;;;;;;;;;;;10.18;76.53;102297.94;5101983;28;20310;-87
2022/12/06 01:43:32;;;;;;;;;;;;;;;10.18;76.26;102295.31;5108035;28;20414;-86
2022/12/06 01:45:58;;;;;;;;;;;;;;;10.17;76.36;102283.97;5108607;28;20370;-87
2022/12/06 01:48:24;;;;;;;;;;;;;;;10.20;76.32;102278.09;5076870;28;19968;-88
2022/12/06 01:50:49;;;;;;;;;;;;;;;10.19;76.45;102277.19;5080037;28;19962;-89
2022/12/06 01:53:15;;;;;;;;;;;;;;;10.20;76.28;102275.47;5110333;28;20380;-89
2022/12/06 01:55:42;;;;;;;;;;;;;;;10.19;76.22;102274.56;5111525;28;20450;-87
2022/12/06 01:58:11;;;;;;;;;;;;;;;10.20;76.62;102275.47;5101328;28;19916;-86
2022/12/06 02:00:37;;;;;;;;;;;;;;;10.21;76.05;102273.81;5096959;28;19922;-86
2022/12/06 02:03:03;;;;;;;;;;;;;;;10.23;76.01;102267.00;5082847;28;20407;-87
2022/12/06 02:05:30;;;;;;;;;;;;;;;10.25;76.24;102273.25;5104054;28;20410;-86
2022/12/06 02:07:56;;;;;;;;;;;;;;;10.22;76.03;102268.69;5105182;28;19915;-88
2022/12/06 02:10:25;;;;;;;;;;;;;;;10.17;76.48;102268.31;5091329;28;20447;-87
2022/12/06 02:13:00;;;;;;;;;;;;;;;10.20;76.15;102267.63;5111577;28;19915;-88
2022/12/06 02:15:46;;;;;;;;;;;;;;;10.23;76.35;102269.63;5109261;28;19912;-87
2022/12/06 02:18:30;;;;;;;;;;;;;;;10.22;76.39;102257.31;5116928;27;20320;-87
2022/12/06 02:20:59;;;;;;;;;;;;;;;10.23;76.28;102260.06;5131789;27;19916;-87
2022/12/06 02:23:31;;;;;;;;;;;;;;;10.20;76.53;102259.81;5086684;28;19916;-87
2022/12/06 02:25:59;;;;;;;;;;;;;;;10.18;76.31;102264.94;5110013;28;20315;-87
2022/12/06 02:28:33;;;;;;;;;;;;;;;10.19;76.16;102256.28;5113545;28;20428;-86
2022/12/06 02:30:58;;;;;;;;;;;;;;;10.24;76.45;102258.38;5091437;28;20533;-88
2022/12/06 02:33:27;;;;;;;;;;;;;;;10.23;76.00;102254.84;5094152;28;19943;-87
2022/12/06 02:36:11;;;;;;;;;;;;;;;10.19;76.39;102253.69;5094886;28;20441;-86
2022/12/06 02:38:43;;;;;;;;;;;;;;;10.18;76.16;102258.78;5130667;28;20053;-87
2022/12/06 02:41:10;;;;;;;;;;;;;;;10.18;76.23;102258.78;5112577;28;19919;-86
2022/12/06 02:43:46;;;;;;;;;;;;;;;10.18;76.37;102262.31;5120386;28;19911;-87
2022/12/06 02:46:12;;;;;;;;;;;;;;;10.18;76.45;102256.16;5100811;28;19958;-87
2022/12/06 02:48:37;;;;;;;;;;;;;;;10.19;76.47;102248.47;5093545;28;19962;-87
2022/12/06 02:51:07;;;;;;;;;;;;;;;10.23;76.03;102256.56;5086862;28;19927;-88
2022/12/06 02:53:34;;;;;;;;;;;;;;;10.23;76.09;102257.47;5113302;28;19911;-87
2022/12/06 02:56:00;;;;;;;;;;;;;;;10.24;76.25;102253.13;5103784;28;19915;-87
2022/12/06 02:58:26;;;;;;;;;;;;;;;10.22;76.12;102255.63;5110523;28;19970;-87
2022/12/06 03:00:58;;;;;;;;;;;;;;;10.23;76.33;102256.56;5105849;28;20359;-87
2022/12/06 03:03:24;;;;;;;;;;;;;;;10.23;76.22;102251.34;5090984;28;20054;-87
2022/12/06 03:06:02;;;;;;;;;;;;;;;10.24;76.15;102248.81;5102056;28;20407;-86
2022/12/06 03:08:27;;;;;;;;;;;;;;;10.23;76.09;102256.56;5128262;28;19972;-87
2022/12/06 03:10:54;;;;;;;;;;;;;;;10.22;76.24;102259.94;5114280;28;19962;-87
2022/12/06 03:13:25;;;;;;;;;;;;;;;10.22;76.51;102262.56;5083648;27;20342;-87
2022/12/06 03:15:55;;;;;;;;;;;;;;;10.25;76.25;102260.19;5114556;27;20308;-87
2022/12/06 03:18:21;;;;;;;;;;;;;;;10.25;75.99;102262.81;5097334;28;20404;-87
2022/12/06 03:20:51;;;;;;;;;;;;;;;10.22;76.52;102263.44;5112149;28;19912;-87
2022/12/06 03:23:19;;;;;;;;;;;;;;;10.22;76.51;102259.94;5108477;28;19922;-87
2022/12/06 03:25:45;;;;;;;;;;;;;;;10.23;76.43;102262.69;5094498;28;19991;-87
2022/12/06 03:28:11;;;;;;;;;;;;;;;10.25;76.15;102257.59;5107756;28;19958;-87
2022/12/06 03:30:36;;;;;;;;;;;;;;;10.21;76.19;102258.13;5096226;28;19969;-87
2022/12/06 03:33:01;;;;;;;;;;;;;;;10.22;76.47;102259.94;5082992;28;19915;-87
2022/12/06 03:35:28;;;;;;;;;;;;;;;10.24;75.96;102248.81;5114398;28;19919;-86
2022/12/06 03:37:56;;;;;;;;;;;;;;;10.25;76.38;102247.16;5114077;28;19977;-87
2022/12/06 03:40:26;;;;;;;;;;;;;;;10.24;76.13;102250.53;5093307;28;20384;-86
2022/12/06 03:42:51;;;;;;;;;;;;;;;10.25;76.30;102244.53;5111926;28;19915;-85
2022/12/06 03:45:17;;;;;;;;;;;;;;;10.24;76.05;102243.59;5102281;28;20464;-87
2022/12/06 03:47:49;;;;;;;;;;;;;;;10.26;75.84;102252.47;5100010;28;19912;-87
2022/12/06 03:50:16;;;;;;;;;;;;;;;10.25;76.02;102260.19;5079824;28;19946;-88
2022/12/06 03:52:42;;;;;;;;;;;;;;;10.25;76.14;102255.88;5110653;28;19964;-90
2022/12/06 03:55:09;;;;;;;;;;;;;;;10.28;75.93;102252.59;5094432;28;19916;-89
2022/12/06 03:57:34;;;;;;;;;;;;;;;10.24;76.06;102264.47;5095541;28;19916;-90
2022/12/06 04:00:00;;;;;;;;;;;;;;;10.24;76.42;102256.66;5112567;28;20392;-89
2022/12/06 04:02:25;;;;;;;;;;;;;;;10.22;76.44;102259.94;5114412;28;20006;-89
2022/12/06 04:04:51;;;;;;;;;;;;;;;10.22;76.29;102255.63;5081820;28;20308;-88
2022/12/06 04:07:20;;;;;;;;;;;;;;;10.22;76.33;102257.31;5105791;28;19964;-87
2022/12/06 04:09:55;;;;;;;;;;;;;;;10.23;76.42;102252.25;5108163;28;20364;-87
2022/12/06 04:15:06;;;;;;;;;;;;;;;10.21;76.20;102258.13;5099195;28;19918;-88
2022/12/06 04:20:15;;;;;;;;;;;;;;;10.25;76.35;102254.97;5109576;28;19926;-87
2022/12/06 04:25:25;;;;;;;;;;;;;;;10.25;76.29;102268.94;5104410;28;20307;-86
2022/12/06 04:38:46;;;;;;;;;;;;;;;10.22;76.39;102273.91;5113306;28;20379;-87
2022/12/06 04:43:40;;;;;;;;;;;;;;;10.27;75.97;102274.28;5113704;28;20393;-88
2022/12/06 04:44:01;;;;;;;;;;;;;;;10.26;76.16;102272.44;5114575;28;19915;-88
2022/12/06 04:46:26;;;;;;;;;;;;;;;10.23;76.25;102274.84;5081076;28;19919;-86
2022/12/06 04:48:52;;;;;;;;;;;;;;;10.23;76.21;102269.63;5104169;28;19980;-87
2022/12/06 04:51:17;;;;;;;;;;;;;;;10.23;76.04;102272.22;5107455;28;20400;-87
2022/12/06 04:53:43;;;;;;;;;;;;;;;10.24;75.94;102274.03;5086699;28;19951;-87
2022/12/06 04:56:09;;;;;;;;;;;;;;;10.26;75.90;102273.34;5113085;28;19968;-87
2022/12/06 04:58:35;;;;;;;;;;;;;;;10.24;76.01;102267.09;5109011;28;19965;-87
2022/12/06 05:01:01;;;;;;;;;;;;;;;10.27;76.27;102276.91;5105015;28;19911;-88
2022/12/06 05:03:27;;;;;;;;;;;;;;;10.26;76.18;102275.06;5112081;28;19911;-88
2022/12/06 05:05:52;;;;;;;;;;;;;;;10.25;75.86;102271.53;5111709;28;20561;-87
2022/12/06 05:08:17;;;;;;;;;;;;;;;10.25;76.35;102271.53;5111581;28;20385;-87
2022/12/06 05:10:47;;;;;;;;;;;;;;;10.28;76.08;102271.78;5092557;28;19978;-87
2022/12/06 05:13:12;;;;;;;;;;;;;;;10.27;75.87;102275.19;5105241;28;19915;-85
2022/12/06 05:15:38;;;;;;;;;;;;;;;10.24;76.12;102282.75;5108486;28;19926;-89
2022/12/06 05:18:03;;;;;;;;;;;;;;;10.23;76.44;102274.84;5111837;28;19924;-87
2022/12/06 05:20:28;;;;;;;;;;;;;;;10.21;76.41;102277.31;5113096;28;20392;-87
2022/12/06 05:22:54;;;;;;;;;;;;;;;10.26;76.24;102278.56;5101997;28;19923;-87
2022/12/06 05:25:19;;;;;;;;;;;;;;;10.25;76.30;102278.47;5100931;28;19913;-87
2022/12/06 05:27:46;;;;;;;;;;;;;;;10.20;76.49;102265.03;5107934;28;19999;-87
2022/12/06 05:30:12;;;;;;;;;;;;;;;10.23;75.99;102275.75;5092841;28;20415;-87
2022/12/06 05:32:38;;;;;;;;;;;;;;;10.22;76.25;102257.31;5094181;28;19965;-88
2022/12/06 05:35:08;;;;;;;;;;;;;;;10.21;76.29;102252.91;5104532;28;21756;-88
2022/12/06 05:37:36;;;;;;;;;;;;;;;10.22;76.37;102244.28;5109112;28;20365;-86
2022/12/06 05:40:02;;;;;;;;;;;;;;;10.22;76.23;102247.78;5099337;28;19919;-86
2022/12/06 05:45:36;;;;;;;;;;;;;;;10.22;76.30;102237.34;5101256;28;20323;-86
2022/12/06 05:48:02;;;;;;;;;;;;;;;10.24;76.08;102237.47;5109337;28;19916;-86
2022/12/06 05:50:28;;;;;;;;;;;;;;;10.23;76.13;102236.56;5111694;28;20307;-85
2022/12/06 05:52:53;;;;;;;;;;;;;;;10.19;76.59;102238.03;5091257;28;20451;-88
2022/12/06 05:55:19;;;;;;;;;;;;;;;10.19;76.19;102240.63;5096383;28;19912;-87
2022/12/06 05:57:44;;;;;;;;;;;;;;;10.22;76.45;102239.06;5111399;28;19951;-88
2022/12/06 06:00:10;;;;;;;;;;;;;;;10.23;76.02;102240.91;5109743;28;19916;-88
2022/12/06 06:02:35;;;;;;;;;;;;;;;10.20;76.35;102241.53;5103800;28;20001;-87
2022/12/06 06:05:04;;;;;;;;;;;;;;;10.23;76.04;102235.66;5108778;28;19937;-88
2022/12/06 06:07:29;;;;;;;;;;;;;;;10.24;76.13;102232.25;5106344;28;19958;-86
2022/12/06 06:09:55;;;;;;;;;;;;;;;10.25;76.31;102236.69;5111856;28;19959;-85
2022/12/06 06:12:20;;;;;;;;;;;;;;;10.21;76.20;102243.38;5111792;28;20009;-87
2022/12/06 06:14:46;;;;;;;;;;;;;;;10.19;76.62;102250.16;5093109;28;20312;-86
2022/12/06 06:17:12;;;;;;;;;;;;;;;10.19;76.53;102247.56;5086449;28;20444;-88
2022/12/06 06:20:04;;;;;;;;;;;;;;;10.23;76.42;102249.63;5081297;28;19980;-87
2022/12/06 06:22:31;;;;;;;;;;;;;;;10.20;76.47;102246.75;5092871;28;19916;-87
2022/12/06 06:24:56;;;;;;;;;;;;;;;10.26;75.99;102243.72;5103346;28;20003;-89
2022/12/06 06:27:25;;;;;;;;;;;;;;;10.27;76.18;102246.47;5089660;28;20464;-88
2022/12/06 06:29:52;;;;;;;;;;;;;;;10.26;76.22;102257.69;5079411;28;20343;-86
2022/12/06 06:32:18;;;;;;;;;;;;;;;10.26;75.89;102256.78;5084351;28;19916;-87
2022/12/06 06:34:44;;;;;;;;;;;;;;;10.24;76.39;102261.88;5106027;28;19916;-88
2022/12/06 06:37:12;;;;;;;;;;;;;;;10.28;76.32;102258.72;5090750;28;19916;-90
2022/12/06 06:39:37;;;;;;;;;;;;;;;10.25;76.21;102260.19;5111085;28;19912;-87
2022/12/06 06:42:03;;;;;;;;;;;;;;;10.24;76.09;102264.47;5106800;28;20403;-87
2022/12/06 06:44:34;;;;;;;;;;;;;;;10.26;76.15;102260.28;5100502;28;19920;-86
2022/12/06 06:47:00;;;;;;;;;;;;;;;10.27;76.29;102254.31;5106998;28;20389;-87
2022/12/06 06:49:25;;;;;;;;;;;;;;;10.25;75.94;102250.66;5112693;28;19919;-85
2022/12/06 06:51:51;;;;;;;;;;;;;;;10.29;76.03;102252.75;5115130;28;20324;-86
2022/12/06 06:54:17;;;;;;;;;;;;;;;10.29;76.28;102244.94;5080046;28;20517;-84
2022/12/06 06:56:43;;;;;;;;;;;;;;;10.36;76.55;102246.31;5113158;28;19973;-87
2022/12/06 06:59:09;;;;;;;;;;;;;;;10.32;76.60;102250.38;5114517;28;19920;-88
2022/12/06 07:01:34;;;;;;;;;;;;;;;10.36;76.39;102251.53;5115927;28;20308;-88
2022/12/06 07:04:00;;;;;;;;;;;;;;;10.34;76.53;102255.72;5113339;28;20006;-86
2022/12/06 07:06:25;;;;;;;;;;;;;;;10.28;76.68;102253.50;5087875;28;20408;-86
2022/12/06 07:08:51;;;;;;;;;;;;;;;10.34;76.47;102247.91;5114913;28;19912;-86
2022/12/06 07:11:16;;;;;;;;;;;;;;;10.37;75.98;102241.22;5090310;28;19922;-86
2022/12/06 07:13:42;;;;;;;;;;;;;;;10.38;75.88;102244.72;5107063;27;19912;-86
2022/12/06 07:16:10;;;;;;;;;;;;;;;10.36;75.90;102246.31;5114423;28;19919;-85
2022/12/06 07:18:36;;;;;;;;;;;;;;;10.38;75.77;102247.34;5114102;28;19927;-86
2022/12/06 07:21:02;;;;;;;;;;;;;;;10.43;75.91;102248.59;5114421;28;20377;-86
2022/12/06 07:23:28;;;;;;;;;;;;;;;10.41;75.71;102241.44;5083695;28;19971;-88
2022/12/06 07:26:03;;;;;;;;;;;;;;;10.43;75.67;102243.38;5102966;28;20023;-87
2022/12/06 07:28:28;;;;;;;;;;;;;;;10.40;76.10;102243.16;5110569;28;19923;-86
2022/12/06 07:30:54;;;;;;;;;;;;;;;10.42;75.62;102238.97;5105098;28;19930;-86
2022/12/06 07:33:19;;;;;;;;;;;;;;;10.41;75.76;102234.50;5107868;28;19973;-86
2022/12/06 07:35:55;;;;;;;;;;;;;;;10.44;75.80;102233.88;5107739;28;19915;-86
2022/12/06 07:38:20;;;;;;;;;;;;;;;10.30;76.36;102227.56;5106207;28;19922;-87
2022/12/06 07:40:46;;;;;;;;;;;;;;;10.27;76.39;102233.41;5102517;28;19916;-86
2022/12/06 07:45:56;;;;;;;;;;;;;;;10.27;76.60;102229.91;5118416;28;19919;-86
2022/12/06 07:48:22;;;;;;;;;;;;;;;10.28;76.36;102226.47;5114523;28;19917;-86
2022/12/06 07:50:48;;;;;;;;;;;;;;;10.26;76.48;102236.81;5114005;28;19972;-85
2022/12/06 07:53:13;;;;;;;;;;;;;;;10.25;76.33;102224.56;5112989;28;19973;-85
2022/12/06 07:55:39;;;;;;;;;;;;;;;10.24;76.37;102227.03;5115816;28;19918;-87
2022/12/06 07:58:04;;;;;;;;;;;;;;;10.27;76.47;102232.50;5113479;28;20540;-87
2022/12/06 08:00:30;;;;;;;;;;;;;;;10.28;76.67;102226.47;5105170;28;20381;-86
2022/12/06 08:02:56;;;;;;;;;;;;;;;10.32;76.44;102224.25;5088933;28;20343;-87
2022/12/06 08:05:21;;;;;;;;;;;;;;;10.30;76.19;102220.63;5104477;28;19916;-87
2022/12/06 08:07:47;;;;;;;;;;;;;;;10.36;76.15;102225.44;5105990;28;20292;-87
2022/12/06 08:10:12;;;;;;;;;;;;;;;10.32;76.27;102225.97;5105020;28;19920;-86
2022/12/06 08:12:38;;;;;;;;;;;;;;;10.33;76.42;102225.19;5113664;28;20458;-86
2022/12/06 08:15:04;;;;;;;;;;;;;;;10.31;76.48;102224.16;5107631;28;20396;-86
2022/12/06 08:17:29;;;;;;;;;;;;;;;10.28;76.61;102216.94;5110144;28;20343;-86
2022/12/06 08:19:54;;;;;;;;;;;;;;;10.29;76.55;102213.59;5092718;28;19927;-86
2022/12/06 08:22:20;;;;;;;;;;;;;;;10.32;76.39;102212.91;5092586;28;19919;-87
2022/12/06 08:24:46;;;;;;;;;;;;;;;10.42;76.21;102211.94;5092951;28;19919;-88
2022/12/06 08:27:15;;;;;;;;;;;;;;;10.36;76.45;102204.53;5068065;28;19916;-88
2022/12/06 08:29:40;;;;;;;;;;;;;;;10.33;76.39;102214.75;5059501;28;20421;-88
2022/12/06 08:32:06;;;;;;;;;;;;;;;10.30;76.32;102207.56;5083864;28;19951;-89
2022/12/06 08:34:33;;;;;;;;;;;;;;;10.34;76.23;102214.84;5092741;28;20408;-90
2022/12/06 08:36:59;;;;;;;;;;;;;;;10.32;76.37;102210.31;5089533;28;19923;-84
2022/12/06 08:39:25;;;;;;;;;;;;;;;10.31;76.60;102212.00;5063436;28;19920;-87
2022/12/06 08:42:01;;;;;;;;;;;;;;;10.29;76.33;102213.59;5057677;28;19916;-87
2022/12/06 08:44:27;;;;;;;;;;;;;;;10.26;76.32;102212.41;5084814;28;19954;-89
2022/12/06 08:46:53;;;;;;;;;;;;;;;10.27;76.75;102204.69;5075682;28;20404;-86
2022/12/06 08:49:18;;;;;;;;;;;;;;;10.31;76.57;102196.34;5091997;28;19916;-86
2022/12/06 08:51:44;;;;;;;;;;;;;;;10.33;76.57;102201.69;5090679;28;19973;-86
2022/12/06 08:54:11;;;;;;;;;;;;;;;10.35;76.07;102198.41;5086462;28;20637;-86
2022/12/06 08:56:36;;;;;;;;;;;;;;;10.38;76.25;102197.72;5073045;28;20002;-87
2022/12/06 08:59:06;;;;;;;;;;;;;;;10.37;76.21;102194.22;5091227;28;20409;-87
2022/12/06 09:01:32;;;;;;;;;;;;;;;10.36;76.32;102191.47;5087094;28;20471;-88
2022/12/06 09:03:57;;;;;;;;;;;;;;;10.40;75.93;102190.94;5092209;28;20007;-88
2022/12/06 09:06:23;;;;;;;;;;;;;;;10.41;76.17;102184.91;5074897;28;19920;-89
2022/12/06 09:08:49;;;;;;;;;;;;;;;10.44;75.75;102179.03;5092169;28;19919;-88
2022/12/06 09:11:15;;;;;;;;;;;;;;;10.38;75.87;102171.63;5091639;28;20549;-88
2022/12/06 09:13:41;;;;;;;;;;;;;;;10.38;75.99;102172.53;5092124;28;19912;-88
2022/12/06 09:16:07;;;;;;;;;;;;;;;10.41;75.83;102168.31;5086909;28;20359;-88
2022/12/06 09:18:32;;;;;;;;;;;;;;;10.42;75.98;102163.22;5076943;28;19955;-87
2022/12/06 09:20:58;;;;;;;;;;;;;;;10.38;76.08;102156.84;5107813;28;19951;-87
2022/12/06 09:23:23;;;;;;;;;;;;;;;10.38;75.94;102154.25;5105320;28;19955;-87
2022/12/06 09:25:49;;;;;;;;;;;;;;;10.37;76.28;102149.81;5098944;28;20379;-85
2022/12/06 09:28:14;;;;;;;;;;;;;;;10.38;76.11;102150.72;5112343;28;19938;-86
2022/12/06 09:30:41;;;;;;;;;;;;;;;10.38;75.82;102138.56;5111078;28;19922;-87
2022/12/06 09:33:07;;;;;;;;;;;;;;;10.39;76.03;102135.19;5106645;28;19912;-88
2022/12/06 09:35:32;;;;;;;;;;;;;;;10.44;75.95;102140.75;5102600;28;20350;-87
2022/12/06 09:37:58;;;;;;;;;;;;;;;10.44;76.13;102139.84;5093659;28;19912;-89
2022/12/06 09:40:28;;;;;;;;;;;;;;;10.44;75.64;102135.53;5093469;28;19916;-91
2022/12/06 09:42:57;;;;;;;;;;;;;;;10.46;75.59;102138.25;5098991;28;19938;-87
2022/12/06 09:45:51;;;;;;;;;;;;;;;10.52;76.60;102129.19;5099894;28;19916;-92
2022/12/06 09:48:26;;;;;;;;;;;;;;;10.55;76.58;102118.97;5099501;28;19915;-85
2022/12/06 09:50:58;;;;;;;;;;;;;;;10.59;74.71;102128.84;5095608;28;19939;-86
2022/12/06 09:53:41;;;;;;;;;;;;;;;10.62;75.72;102111.59;5089832;28;20006;-87
2022/12/06 09:56:22;;;;;;;;;;;;;;;10.60;75.01;102106.25;5090932;28;19916;-87
2022/12/06 09:58:52;;;;;;;;;;;;;;;10.59;74.65;102102.72;5101531;28;20282;-87
2022/12/06 10:01:27;;;;;;;;;;;;;;;10.61;74.62;102100.25;5095113;28;19912;-87
2022/12/06 10:04:12;;;;;;;;;;;;;;;10.60;74.61;102098.41;5093772;28;19916;-87
2022/12/06 10:06:58;;;;;;;;;;;;;;;10.62;74.72;102104.66;5102408;28;19912;-87
2022/12/06 10:09:40;;;;;;;;;;;;;;;10.61;74.68;102099.34;5104238;28;20030;-86
2022/12/06 10:12:05;;;;;;;;;;;;;;;10.60;74.76;102098.41;5100408;28;20414;-86
2022/12/06 10:14:37;;;;;;;;;;;;;;;10.58;74.78;102095.69;5107942;28;19959;-86
2022/12/06 10:17:02;;;;;;;;;;;;;;;10.63;74.86;102092.53;5108361;28;20400;-86
2022/12/06 10:19:32;;;;;;;;;;;;;;;10.62;74.88;102085.47;5118983;27;19920;-86
2022/12/06 10:22:16;;;;;;;;;;;;;;;10.63;74.64;102082.06;5122791;27;20391;-86
2022/12/06 10:24:54;;;;;;;;;;;;;;;10.64;74.56;102079.56;5104448;27;19911;-86
2022/12/06 10:27:29;;;;;;;;;;;;;;;10.65;74.48;102084.00;5112008;28;20398;-86
2022/12/06 10:29:57;;;;;;;;;;;;;;;10.63;75.05;102079.47;5100286;28;20396;-86
2022/12/06 10:32:41;;;;;;;;;;;;;;;10.63;74.79;102077.75;5101386;28;19912;-86
2022/12/06 10:35:12;;;;;;;;;;;;;;;10.63;74.77;102079.47;5095811;28;19915;-85
2022/12/06 10:37:38;;;;;;;;;;;;;;;10.63;75.04;102066.41;5102146;28;19915;-85
2022/12/06 10:40:11;;;;;;;;;;;;;;;10.64;74.90;102073.44;5129824;28;19922;-85
2022/12/06 10:42:56;;;;;;;;;;;;;;;10.64;75.00;102065.59;5114437;28;19911;-85
2022/12/06 10:48:22;;;;;;;;;;;;;;;10.66;74.77;102053.56;5103916;28;20003;-88
2022/12/06 10:50:50;;;;;;;;;;;;;;;10.65;74.67;102049.13;5108873;28;19998;-87
2022/12/06 10:53:15;;;;;;;;;;;;;;;10.66;74.73;102056.16;5109864;28;19972;-86
2022/12/06 10:55:41;;;;;;;;;;;;;;;10.65;74.71;102039.59;5114097;28;19911;-87
2022/12/06 10:58:15;;;;;;;;;;;;;;;10.66;74.65;102036.16;5131674;28;19912;-87
2022/12/06 11:01:01;;;;;;;;;;;;;;;10.67;74.92;102042.28;5109538;28;20372;-86
2022/12/06 11:03:40;;;;;;;;;;;;;;;10.66;75.02;102025.72;5107703;28;19915;-85
2022/12/06 11:06:16;;;;;;;;;;;;;;;10.66;74.92;102015.28;5107727;28;19922;-86
2022/12/06 11:08:45;;;;;;;;;;;;;;;10.66;74.57;102028.34;5112361;28;19950;-86
2022/12/06 11:11:15;;;;;;;;;;;;;;;10.65;74.94;102023.91;5113669;28;20308;-86
2022/12/06 11:13:42;;;;;;;;;;;;;;;10.68;74.80;102016.28;5109272;28;19975;-85
2022/12/06 11:16:12;;;;;;;;;;;;;;;10.68;74.99;102008.44;5113947;28;19940;-87
2022/12/06 11:18:37;;;;;;;;;;;;;;;10.67;74.70;102004.03;5102481;28;20430;-87
2022/12/06 11:21:32;;;;;;;;;;;;;;;10.68;74.70;102007.56;5112673;28;20006;-87
2022/12/06 11:24:09;;;;;;;;;;;;;;;10.68;74.70;102005.84;5096837;28;19911;-87
2022/12/06 11:26:40;;;;;;;;;;;;;;;10.68;74.69;102005.84;5089971;28;19920;-86
2022/12/06 11:29:09;;;;;;;;;;;;;;;10.70;75.01;102000.75;5126173;28;20432;-85
2022/12/06 11:31:44;;;;;;;;;;;;;;;10.70;74.89;102000.75;5113991;28;20018;-85
2022/12/06 11:34:15;;;;;;;;;;;;;;;10.71;75.03;102005.16;5117954;28;19912;-84
2022/12/06 11:36:40;;;;;;;;;;;;;;;10.73;74.56;102001.88;5104111;27;19998;-86
2022/12/06 11:39:06;;;;;;;;;;;;;;;10.72;74.81;101997.44;5134937;27;19961;-88
2022/12/06 11:41:33;;;;;;;;;;;;;;;10.68;74.75;101999.72;5112451;28;20356;-85
2022/12/06 11:43:58;;;;;;;;;;;;;;;10.71;75.03;101992.09;5097023;28;19919;-85
2022/12/06 11:46:24;;;;;;;;;;;;;;;10.71;74.99;101994.69;5117812;27;20447;-85
2022/12/06 11:48:49;;;;;;;;;;;;;;;10.70;74.69;101985.97;5135627;27;19916;-86
2022/12/06 11:51:19;;;;;;;;;;;;;;;10.71;74.82;101990.41;5116333;27;20076;-86
2022/12/06 11:53:54;;;;;;;;;;;;;;;10.74;74.97;101992.31;5117301;27;20411;-87
2022/12/06 11:56:21;;;;;;;;;;;;;;;10.72;74.54;101983.47;5100879;28;19923;-86
2022/12/06 11:58:56;;;;;;;;;;;;;;;10.72;75.09;101986.97;5103807;27;20384;-86
2022/12/06 12:01:22;;;;;;;;;;;;;;;10.72;74.85;101986.97;5132137;27;19919;-86
2022/12/06 12:03:47;;;;;;;;;;;;;;;10.70;74.89;101977.22;5102492;27;19923;-86
2022/12/06 12:06:20;;;;;;;;;;;;;;;10.73;74.55;101980.97;5108072;27;19923;-86
2022/12/06 12:08:51;;;;;;;;;;;;;;;10.70;75.08;101985.06;5113689;27;19980;-88
2022/12/06 12:11:21;;;;;;;;;;;;;;;10.71;74.76;101979.03;5087243;28;20014;-85
2022/12/06 12:13:51;;;;;;;;;;;;;;;10.73;74.81;101975.75;5110888;27;20277;-86
2022/12/06 12:16:18;;;;;;;;;;;;;;;10.73;74.83;101978.38;5108168;27;19912;-87
2022/12/06 12:18:54;;;;;;;;;;;;;;;10.71;74.86;101974.72;5091346;28;19926;-89
2022/12/06 12:21:31;;;;;;;;;;;;;;;10.74;74.67;101977.56;5086010;28;19938;-87
2022/12/06 12:23:57;;;;;;;;;;;;;;;10.75;74.64;101968.00;5105305;28;19922;-87
2022/12/06 12:26:23;;;;;;;;;;;;;;;10.74;74.97;101974.03;5082113;28;19912;-87
2022/12/06 12:29:12;;;;;;;;;;;;;;;10.73;74.80;101973.13;5088151;28;19923;-87
2022/12/06 12:31:51;;;;;;;;;;;;;;;10.74;75.07;101979.25;5088195;28;19916;-86
2022/12/06 12:34:17;;;;;;;;;;;;;;;10.73;74.81;101973.13;5110859;28;19916;-87
2022/12/06 12:37:09;;;;;;;;;;;;;;;10.74;74.96;101967.09;5101064;28;19934;-88
2022/12/06 12:39:44;;;;;;;;;;;;;;;10.76;74.64;101967.22;5104630;28;19915;-86
2022/12/06 12:42:26;;;;;;;;;;;;;;;10.75;74.69;101957.53;5097860;28;20290;-85
2022/12/06 12:44:53;;;;;;;;;;;;;;;10.75;74.88;101958.47;5109196;28;19916;-86
2022/12/06 12:47:19;;;;;;;;;;;;;;;10.75;75.01;101952.31;5104772;28;20010;-86
2022/12/06 12:50:00;;;;;;;;;;;;;;;10.75;74.92;101953.25;5077933;28;20121;-87
2022/12/06 12:52:35;;;;;;;;;;;;;;;10.78;74.84;101952.56;5105863;28;20405;-87
2022/12/06 12:55:21;;;;;;;;;;;;;;;10.76;74.71;101952.44;5112147;28;19916;-87
2022/12/06 12:57:53;;;;;;;;;;;;;;;10.75;74.62;101950.66;5104124;28;19912;-87
2022/12/06 13:00:21;;;;;;;;;;;;;;;10.77;74.68;101945.50;5109860;28;19912;-87
2022/12/06 13:02:49;;;;;;;;;;;;;;;10.76;74.54;101951.53;5110454;28;19951;-87
2022/12/06 13:05:15;;;;;;;;;;;;;;;10.76;74.88;101949.84;5112182;28;19912;-88
2022/12/06 13:07:41;;;;;;;;;;;;;;;10.75;74.88;101948.03;5112294;28;19958;-87
2022/12/06 13:10:25;;;;;;;;;;;;;;;10.76;74.92;101947.22;5110960;28;19916;-87